Time;durP1;ratioP1;P1;durP2;ratioP2;P2;SDS_P1;SDS_P2;PMS_P1;PMS_P2;Temp;Humidity;BMP_temperature;BMP_pressure;BME280_temperature;BME280_humidity;BME280_pressure;Samples;Min_cycle;Max_cycle;Signal;HPM_P1;HPM_P2
2022/03/26 00:00:36;;;;;;;36.80;22.60;;;2.20;94.50;;;;;;5056985;28;20116;-96
2022/03/26 00:03:03;;;;;;;39.63;23.25;;;2.20;94.70;;;;;;5056941;28;20501;-94
2022/03/26 00:05:29;;;;;;;37.25;21.38;;;2.30;94.70;;;;;;5056894;28;20028;-94
2022/03/26 00:07:54;;;;;;;33.95;19.92;;;2.30;94.60;;;;;;5056849;28;20028;-95
2022/03/26 00:10:20;;;;;;;37.10;21.60;;;2.30;94.70;;;;;;5056916;28;20379;-94
2022/03/26 00:12:46;;;;;;;33.67;20.85;;;2.40;94.50;;;;;;5056674;28;20070;-94
2022/03/26 00:15:12;;;;;;;33.78;20.70;;;2.40;94.40;;;;;;5056746;28;20070;-95
2022/03/26 00:17:38;;;;;;;36.25;21.65;;;2.40;94.30;;;;;;5056697;28;20035;-94
2022/03/26 00:20:06;;;;;;;41.00;22.13;;;2.50;94.30;;;;;;5056727;28;20352;-95
2022/03/26 00:22:32;;;;;;;35.40;21.52;;;2.50;94.20;;;;;;5056849;28;20021;-94
2022/03/26 00:24:58;;;;;;;35.72;21.13;;;2.50;94.20;;;;;;5056520;28;20111;-94
2022/03/26 00:27:24;;;;;;;40.65;21.83;;;2.50;94.20;;;;;;5056581;28;20056;-94
2022/03/26 00:29:49;;;;;;;42.80;25.98;;;2.40;94.30;;;;;;5056562;28;20081;-94
2022/03/26 00:32:15;;;;;;;41.95;27.98;;;2.50;94.40;;;;;;5056274;28;20048;-94
2022/03/26 00:34:41;;;;;;;47.85;28.75;;;2.50;94.40;;;;;;5056570;28;20025;-95
2022/03/26 00:37:06;;;;;;;45.40;28.13;;;2.50;94.40;;;;;;5056475;28;20025;-94
2022/03/26 00:39:33;;;;;;;42.70;26.75;;;2.60;94.30;;;;;;5056562;28;20025;-94
2022/03/26 00:41:59;;;;;;;44.83;26.95;;;2.60;94.30;;;;;;5056462;28;20024;-95
2022/03/26 00:44:25;;;;;;;41.25;25.20;;;2.60;94.30;;;;;;5056736;28;20036;-94
2022/03/26 00:46:51;;;;;;;46.97;25.75;;;2.60;94.40;;;;;;5056571;28;20056;-95
2022/03/26 00:49:18;;;;;;;43.17;25.33;;;2.60;94.40;;;;;;5056549;28;20063;-94
2022/03/26 00:51:44;;;;;;;48.85;26.85;;;2.60;94.40;;;;;;5074157;28;20031;-94
2022/03/26 00:54:11;;;;;;;40.67;24.27;;;2.60;94.30;;;;;;5059083;28;20016;-94
2022/03/26 00:56:38;;;;;;;37.40;22.33;;;2.60;94.40;;;;;;5060311;28;20021;-94
2022/03/26 00:59:04;;;;;;;40.35;23.77;;;2.60;94.50;;;;;;5060444;28;20025;-95
2022/03/26 01:01:31;;;;;;;42.85;23.30;;;2.60;94.50;;;;;;5060248;28;20025;-94
2022/03/26 01:03:57;;;;;;;39.97;22.30;;;2.60;94.70;;;;;;5060250;28;20032;-94
2022/03/26 01:06:23;;;;;;;38.42;22.75;;;2.60;95.00;;;;;;5060282;28;20032;-95
2022/03/26 01:08:49;;;;;;;38.20;22.20;;;2.60;95.10;;;;;;5060249;28;20024;-94
2022/03/26 01:11:15;;;;;;;39.97;21.40;;;2.60;95.00;;;;;;5059996;28;20033;-94
2022/03/26 01:13:41;;;;;;;36.63;21.25;;;2.60;95.00;;;;;;5060016;28;20111;-94
2022/03/26 01:16:06;;;;;;;43.65;23.65;;;2.60;95.00;;;;;;5060800;28;20129;-94
2022/03/26 01:18:33;;;;;;;38.50;22.52;;;2.70;95.10;;;;;;5059901;28;20021;-94
2022/03/26 01:20:59;;;;;;;42.45;23.88;;;2.70;95.40;;;;;;5059861;28;20017;-94
2022/03/26 01:23:25;;;;;;;39.08;23.35;;;2.60;95.30;;;;;;5059762;28;20475;-94
2022/03/26 01:25:51;;;;;;;44.05;24.30;;;2.60;95.30;;;;;;5059874;28;20033;-95
2022/03/26 01:28:17;;;;;;;35.72;21.52;;;2.60;95.30;;;;;;5059836;28;20021;-95
2022/03/26 01:30:42;;;;;;;32.38;19.70;;;2.60;95.40;;;;;;5059807;28;20486;-94
2022/03/26 01:33:08;;;;;;;37.47;21.20;;;2.60;95.50;;;;;;5059590;28;20049;-95
2022/03/26 01:35:34;;;;;;;41.53;22.02;;;2.60;95.80;;;;;;5059427;28;20033;-95
2022/03/26 01:38:01;;;;;;;39.95;22.55;;;2.60;95.90;;;;;;5059675;28;20020;-95
2022/03/26 01:40:27;;;;;;;38.65;22.38;;;2.50;95.80;;;;;;5059508;28;20032;-95
2022/03/26 01:42:54;;;;;;;38.20;22.00;;;2.50;96.10;;;;;;5059511;28;20036;-95
2022/03/26 01:45:19;;;;;;;33.28;21.17;;;2.50;96.30;;;;;;5059506;28;20078;-95
2022/03/26 01:47:45;;;;;;;33.22;20.63;;;2.40;96.30;;;;;;5059488;28;20094;-95
2022/03/26 01:50:10;;;;;;;31.48;18.67;;;2.40;96.30;;;;;;5059376;28;20031;-94
2022/03/26 01:52:36;;;;;;;33.53;19.48;;;2.40;96.50;;;;;;5060307;28;20036;-94
2022/03/26 01:55:03;;;;;;;30.52;18.70;;;2.30;96.70;;;;;;5059358;28;20059;-93
2022/03/26 01:57:29;;;;;;;31.45;18.65;;;2.40;97.10;;;;;;5059217;28;20021;-94
2022/03/26 01:59:55;;;;;;;30.27;18.98;;;2.40;97.20;;;;;;5059088;28;20035;-94
2022/03/26 02:02:22;;;;;;;31.60;18.83;;;2.40;97.30;;;;;;5059080;28;20489;-95
2022/03/26 02:04:48;;;;;;;32.20;17.67;;;2.40;97.10;;;;;;5058494;28;20116;-95
2022/03/26 02:07:13;;;;;;;33.03;18.85;;;2.40;97.30;;;;;;5059182;28;20055;-94
2022/03/26 02:09:39;;;;;;;34.60;19.77;;;2.40;97.80;;;;;;5059074;28;20033;-94
2022/03/26 02:12:24;;;;;;;28.52;18.58;;;2.40;97.70;;;;;;5058979;28;20115;-94
2022/03/26 02:14:49;;;;;;;30.05;18.67;;;2.40;98.20;;;;;;5059130;28;20110;-93
2022/03/26 02:17:17;;;;;;;33.60;20.50;;;2.40;98.20;;;;;;5058955;28;20025;-94
2022/03/26 02:19:48;;;;;;;29.50;18.50;;;2.50;98.40;;;;;;5058769;28;20025;-94
2022/03/26 02:22:14;;;;;;;33.83;19.63;;;2.50;98.30;;;;;;5058847;28;20120;-93
2022/03/26 02:24:39;;;;;;;35.40;19.27;;;2.50;98.40;;;;;;5058586;28;20497;-96
2022/03/26 02:27:09;;;;;;;31.42;18.45;;;2.50;98.40;;;;;;5058650;28;20028;-94
2022/03/26 02:29:35;;;;;;;32.50;19.87;;;2.50;98.30;;;;;;5058613;28;20073;-95
2022/03/26 02:32:01;;;;;;;35.33;21.00;;;2.50;98.70;;;;;;5058415;28;20301;-95
2022/03/26 02:34:27;;;;;;;36.72;21.70;;;2.50;98.60;;;;;;5058857;28;20039;-93
2022/03/26 02:36:57;;;;;;;38.28;23.13;;;2.50;98.70;;;;;;5058779;28;20025;-94
2022/03/26 02:39:23;;;;;;;38.83;22.80;;;2.50;98.80;;;;;;5058740;28;20079;-94
2022/03/26 02:41:48;;;;;;;37.25;21.33;;;2.40;99.10;;;;;;5058427;28;20032;-94
2022/03/26 02:44:14;;;;;;;35.88;20.55;;;2.40;99.10;;;;;;5058554;28;20108;-94
2022/03/26 02:46:40;;;;;;;33.40;19.35;;;2.40;99.00;;;;;;5058273;28;20031;-94
2022/03/26 02:49:05;;;;;;;35.22;20.25;;;2.30;99.30;;;;;;5058235;28;20383;-94
2022/03/26 02:51:31;;;;;;;31.48;19.95;;;2.30;99.20;;;;;;5058302;28;20031;-95
2022/03/26 02:53:57;;;;;;;35.38;20.20;;;2.30;99.30;;;;;;5058298;28;20101;-94
2022/03/26 02:56:23;;;;;;;34.35;21.02;;;2.30;99.70;;;;;;5058193;28;20133;-94
2022/03/26 02:58:49;;;;;;;32.72;20.73;;;2.20;99.60;;;;;;5058043;28;20379;-94
2022/03/26 03:01:15;;;;;;;33.53;20.00;;;2.20;99.60;;;;;;5058030;28;20532;-95
2022/03/26 03:03:41;;;;;;;32.38;21.02;;;2.20;99.90;;;;;;5058512;28;20024;-94
2022/03/26 03:06:06;;;;;;;38.88;20.73;;;2.20;99.90;;;;;;5058045;28;20109;-94
2022/03/26 03:08:33;;;;;;;37.35;20.38;;;2.10;99.90;;;;;;5058501;28;20017;-95
2022/03/26 03:10:59;;;;;;;31.55;19.50;;;2.10;99.90;;;;;;5057818;28;20016;-94
2022/03/26 03:13:25;;;;;;;34.75;19.20;;;2.10;99.90;;;;;;5057566;28;20039;-94
2022/03/26 03:15:51;;;;;;;31.92;18.25;;;2.10;99.90;;;;;;5056830;28;20021;-94
2022/03/26 03:18:18;;;;;;;30.60;19.63;;;2.10;99.90;;;;;;5057713;28;20253;-94
2022/03/26 03:20:44;;;;;;;33.38;19.77;;;2.10;99.90;;;;;;5057637;28;20074;-94
2022/03/26 03:23:11;;;;;;;31.73;18.08;;;2.10;99.90;;;;;;5057669;28;20493;-94
2022/03/26 03:25:37;;;;;;;32.80;19.63;;;2.10;99.90;;;;;;5057539;28;20098;-94
2022/03/26 03:28:04;;;;;;;31.38;18.80;;;2.10;99.90;;;;;;5057707;28;20112;-95
2022/03/26 03:30:30;;;;;;;33.33;19.55;;;2.10;99.90;;;;;;5057500;28;20032;-95
2022/03/26 03:32:56;;;;;;;29.02;18.52;;;2.10;99.90;;;;;;5057135;28;20055;-93
2022/03/26 03:35:22;;;;;;;30.40;17.90;;;2.10;99.90;;;;;;5057238;28;20111;-94
2022/03/26 03:37:48;;;;;;;36.80;20.17;;;2.10;99.90;;;;;;5057322;28;20510;-95
2022/03/26 03:40:14;;;;;;;33.58;20.13;;;2.10;99.90;;;;;;5057344;28;20077;-95
2022/03/26 03:42:40;;;;;;;32.75;19.98;;;2.10;99.90;;;;;;5057219;28;20021;-94
2022/03/26 03:45:07;;;;;;;35.67;21.33;;;2.10;99.90;;;;;;5057214;28;20033;-93
2022/03/26 03:47:33;;;;;;;36.30;20.33;;;2.10;99.90;;;;;;5057151;28;20042;-94
2022/03/26 03:49:59;;;;;;;37.65;21.00;;;2.10;99.90;;;;;;5057388;28;20068;-95
2022/03/26 03:52:24;;;;;;;34.80;20.48;;;2.10;99.90;;;;;;5057115;28;20020;-95
2022/03/26 03:54:50;;;;;;;34.55;19.92;;;2.00;99.90;;;;;;5057056;28;20016;-95
2022/03/26 03:57:16;;;;;;;35.78;20.88;;;2.00;99.90;;;;;;5057028;28;20459;-96
2022/03/26 03:59:42;;;;;;;32.72;19.83;;;2.00;99.90;;;;;;5056840;28;20051;-95
2022/03/26 04:02:12;;;;;;;36.67;21.95;;;1.90;99.90;;;;;;5057035;28;20037;-96
2022/03/26 04:04:39;;;;;;;40.17;21.05;;;1.90;99.90;;;;;;5056903;28;20028;-94
2022/03/26 04:07:05;;;;;;;38.35;20.80;;;1.90;99.90;;;;;;5056766;28;20039;-95
2022/03/26 04:09:31;;;;;;;33.35;20.23;;;1.90;99.90;;;;;;5056700;28;20116;-95
2022/03/26 04:11:57;;;;;;;38.30;20.33;;;1.80;99.90;;;;;;5056751;28;20119;-94
2022/03/26 04:14:23;;;;;;;35.28;20.58;;;1.90;99.90;;;;;;5056994;28;20032;-95
2022/03/26 04:16:48;;;;;;;37.53;21.20;;;1.80;99.90;;;;;;5056763;28;20075;-94
2022/03/26 04:19:14;;;;;;;35.80;21.05;;;1.80;99.90;;;;;;5056724;28;20027;-95
2022/03/26 04:21:40;;;;;;;32.15;18.88;;;1.80;99.90;;;;;;5056582;28;20085;-95
2022/03/26 04:24:05;;;;;;;33.15;19.42;;;1.80;99.90;;;;;;5056748;28;20174;-94
2022/03/26 04:26:31;;;;;;;37.72;21.80;;;1.90;99.90;;;;;;5056434;28;20031;-93
2022/03/26 04:28:57;;;;;;;42.47;22.15;;;1.90;99.90;;;;;;5056771;28;20036;-94
2022/03/26 04:31:23;;;;;;;39.78;21.15;;;1.90;99.90;;;;;;5056330;28;20139;-93
2022/03/26 04:33:48;;;;;;;38.10;21.55;;;2.00;99.90;;;;;;5056549;28;20059;-94
2022/03/26 04:36:14;;;;;;;37.17;21.40;;;2.00;99.90;;;;;;5056909;28;20029;-94
2022/03/26 04:38:40;;;;;;;35.70;20.02;;;2.10;99.90;;;;;;5056688;28;20025;-93
2022/03/26 04:41:07;;;;;;;39.33;21.02;;;2.10;99.90;;;;;;5056341;28;20028;-94
2022/03/26 04:43:32;;;;;;;40.67;21.25;;;2.20;99.90;;;;;;5056548;28;20021;-92
2022/03/26 04:45:58;;;;;;;35.60;20.75;;;2.20;99.90;;;;;;5056288;28;20446;-93
2022/03/26 04:48:23;;;;;;;40.00;21.88;;;2.30;99.90;;;;;;5056431;28;20119;-93
2022/03/26 04:50:49;;;;;;;36.83;21.20;;;2.40;99.90;;;;;;5056634;28;20025;-93
2022/03/26 04:53:15;;;;;;;36.60;20.27;;;2.40;99.90;;;;;;5056225;28;20039;-93
2022/03/26 04:55:40;;;;;;;33.95;19.58;;;2.50;99.90;;;;;;5056325;28;20020;-93
2022/03/26 04:58:06;;;;;;;38.60;22.30;;;2.50;99.90;;;;;;5056631;28;20020;-93
2022/03/26 05:00:32;;;;;;;34.25;20.73;;;2.60;99.90;;;;;;5056364;28;20047;-93
2022/03/26 05:02:57;;;;;;;37.55;21.20;;;2.60;99.90;;;;;;5056253;28;20029;-91
2022/03/26 05:05:23;;;;;;;36.03;21.50;;;2.70;99.90;;;;;;5056245;28;20032;-92
2022/03/26 05:07:51;;;;;;;38.70;19.80;;;2.70;99.90;;;;;;5057222;28;20038;-92
2022/03/26 05:10:22;;;;;;;34.28;19.42;;;2.90;99.90;;;;;;5056188;28;20071;-92
2022/03/26 05:12:49;;;;;;;32.95;19.10;;;2.90;99.90;;;;;;5073847;28;20024;-92
2022/03/26 05:15:16;;;;;;;29.92;19.40;;;3.00;99.90;;;;;;5056134;28;20104;-92
2022/03/26 05:17:42;;;;;;;34.95;19.55;;;3.10;99.90;;;;;;5056161;28;20027;-91
2022/03/26 05:20:11;;;;;;;34.85;19.58;;;3.20;99.90;;;;;;5056122;28;20430;-92
2022/03/26 05:22:38;;;;;;;30.35;18.73;;;3.30;99.90;;;;;;5056210;28;20028;-90
2022/03/26 05:25:04;;;;;;;31.75;19.58;;;3.40;99.80;;;;;;5055981;28;20078;-92
2022/03/26 05:27:29;;;;;;;33.15;19.83;;;3.50;99.40;;;;;;5055962;28;20025;-92
2022/03/26 05:29:55;;;;;;;33.67;19.77;;;3.60;99.30;;;;;;5055881;28;20027;-91
2022/03/26 05:32:21;;;;;;;33.60;19.40;;;3.70;99.10;;;;;;5073606;28;20373;-90
2022/03/26 05:34:46;;;;;;;35.92;20.70;;;3.80;99.00;;;;;;5056023;28;20017;-90
2022/03/26 05:37:13;;;;;;;37.53;20.42;;;3.90;98.70;;;;;;5055924;28;20023;-90
2022/03/26 05:39:39;;;;;;;36.22;19.95;;;4.00;98.40;;;;;;5057780;28;20382;-89
2022/03/26 05:42:05;;;;;;;35.67;20.25;;;4.00;98.20;;;;;;5059622;28;20021;-89
2022/03/26 05:44:30;;;;;;;31.65;19.30;;;4.20;98.00;;;;;;5059634;28;20480;-89
2022/03/26 05:46:56;;;;;;;34.75;19.10;;;4.30;97.80;;;;;;5059869;28;20166;-89
2022/03/26 05:49:22;;;;;;;31.77;18.90;;;4.30;97.60;;;;;;5059423;28;20081;-89
2022/03/26 05:51:48;;;;;;;32.38;19.63;;;4.40;97.40;;;;;;5059141;28;20028;-89
2022/03/26 05:54:14;;;;;;;31.90;18.83;;;4.50;97.10;;;;;;5076942;28;20426;-89
2022/03/26 05:56:40;;;;;;;31.27;18.48;;;4.60;96.80;;;;;;5077047;28;20031;-89
2022/03/26 05:59:09;;;;;;;32.58;18.85;;;4.70;96.60;;;;;;5059187;28;20067;-88
2022/03/26 06:01:36;;;;;;;32.65;19.02;;;4.80;96.50;;;;;;5059250;28;20028;-88
2022/03/26 06:04:02;;;;;;;32.70;19.15;;;4.90;96.20;;;;;;5059140;28;20086;-89
2022/03/26 06:06:27;;;;;;;32.35;19.13;;;4.90;96.00;;;;;;5058959;28;20028;-89
2022/03/26 06:08:53;;;;;;;35.00;19.48;;;5.00;96.00;;;;;;5059162;28;20047;-88
2022/03/26 06:11:21;;;;;;;34.45;19.88;;;5.10;95.90;;;;;;5076847;28;20033;-88
